Malaysia Virtual Airlines Airport Information Service

Kunming

ICAO: ZPPP Country: China
Latitude: 24.9924 Longitude: 102.744
Latest Arrival : MC352 (WMKK-ZPPP) Latest Departure : MC353 (ZPPP-WMKK)


WX CaptureLIVE
Data provided by noaa.gov | Fetched at 07:23:14

METAR : ZPPP 160600Z 23006MPS 200V260 CAVOK 25/03 Q1019 NOSIG

TAF : ZPPP 160315Z 1606/1706 22007MPS 9999 SCT023 TX26/1608Z TN10/1623Z BECMG 1610/1611 04007MPS TEMPO 1619/1623 TSRA FEW023CB SCT023 BKN033


Runway Data for ZPPP
Data provided by openaviationdata.com

Runway ID Mag Var Hdg Length Elevation Surface ILS Freq ILS Id ILS Slope
3 -1 32° 11192 ft 6215 ft Concrete 110.3 ILR 3
21 -1 212° 11192 ft 6215 ft Concrete 109.7 IQB 3

Kunming, China
Use only for reference purposes



Not for navigational purposes.